sensor_id;sensor_type;location;lat;lon;timestamp;pressure;altitude;pressure_sealevel;temperature;humidity
70521;BME280;58442;52.716;23.560;2023-02-02T00:00:38;99961.29;;;3.64;76.88
70521;BME280;58442;52.716;23.560;2023-02-02T00:02:45;99962.09;;;3.64;76.91
70521;BME280;58442;52.716;23.560;2023-02-02T00:04:46;99965.88;;;3.63;76.91
70521;BME280;58442;52.716;23.560;2023-02-02T00:06:48;99974.42;;;3.65;76.81
70521;BME280;58442;52.716;23.560;2023-02-02T00:08:49;99972.84;;;3.64;76.82
70521;BME280;58442;52.716;23.560;2023-02-02T00:10:53;99966.66;;;3.64;76.85
70521;BME280;58442;52.716;23.560;2023-02-02T00:12:58;99965.88;;;3.63;76.86
70521;BME280;58442;52.716;23.560;2023-02-02T00:14:59;99962.09;;;3.64;76.87
70521;BME280;58442;52.716;23.560;2023-02-02T00:17:01;99958.30;;;3.65;76.83
70521;BME280;58442;52.716;23.560;2023-02-02T00:19:08;99956.73;;;3.64;76.78
70521;BME280;58442;52.716;23.560;2023-02-02T00:21:10;99952.44;;;3.63;76.79
70521;BME280;58442;52.716;23.560;2023-02-02T00:23:16;99954.34;;;3.63;76.82
70521;BME280;58442;52.716;23.560;2023-02-02T00:25:18;99954.34;;;3.63;76.84
70521;BME280;58442;52.716;23.560;2023-02-02T00:27:22;99952.76;;;3.62;76.82
70521;BME280;58442;52.716;23.560;2023-02-02T00:29:28;99955.13;;;3.63;76.77
70521;BME280;58442;52.716;23.560;2023-02-02T00:31:29;99953.55;;;3.62;76.77
70521;BME280;58442;52.716;23.560;2023-02-02T00:33:31;99961.60;;;3.62;76.77
70521;BME280;58442;52.716;23.560;2023-02-02T00:35:32;99963.19;;;3.63;76.76
70521;BME280;58442;52.716;23.560;2023-02-02T00:37:40;99971.24;;;3.63;76.75
70521;BME280;58442;52.716;23.560;2023-02-02T00:39:42;99958.61;;;3.64;76.72
70521;BME280;58442;52.716;23.560;2023-02-02T00:41:44;99956.73;;;3.64;76.66
70521;BME280;58442;52.716;23.560;2023-02-02T00:43:45;99959.41;;;3.64;76.66
70521;BME280;58442;52.716;23.560;2023-02-02T00:45:56;99960.20;;;3.65;76.65
70521;BME280;58442;52.716;23.560;2023-02-02T00:47:58;99950.23;;;3.65;76.54
70521;BME280;58442;52.716;23.560;2023-02-02T00:50:01;99955.91;;;3.64;76.54
70521;BME280;58442;52.716;23.560;2023-02-02T00:52:02;99955.91;;;3.64;76.61
70521;BME280;58442;52.716;23.560;2023-02-02T00:54:12;99953.55;;;3.62;76.61
70521;BME280;58442;52.716;23.560;2023-02-02T00:56:16;99955.91;;;3.64;76.58
70521;BME280;58442;52.716;23.560;2023-02-02T00:58:20;99954.05;;;3.64;76.59
70521;BME280;58442;52.716;23.560;2023-02-02T01:00:24;99942.96;;;3.66;76.56
70521;BME280;58442;52.716;23.560;2023-02-02T01:02:27;99954.51;;;3.66;76.53
70521;BME280;58442;52.716;23.560;2023-02-02T01:04:29;99946.45;;;3.66;76.56
70521;BME280;58442;52.716;23.560;2023-02-02T01:06:30;99943.76;;;3.66;76.54
70521;BME280;58442;52.716;23.560;2023-02-02T01:08:31;99948.34;;;3.66;76.54
70521;BME280;58442;52.716;23.560;2023-02-02T01:10:42;99951.80;;;3.66;76.62
70521;BME280;58442;52.716;23.560;2023-02-02T01:12:44;99949.92;;;3.67;76.59
70521;BME280;58442;52.716;23.560;2023-02-02T01:14:45;99948.80;;;3.68;76.51
70521;BME280;58442;52.716;23.560;2023-02-02T01:16:47;99951.80;;;3.66;76.58
70521;BME280;58442;52.716;23.560;2023-02-02T01:19:04;99945.66;;;3.66;76.60
70521;BME280;58442;52.716;23.560;2023-02-02T01:21:08;99947.23;;;3.67;76.63
70521;BME280;58442;52.716;23.560;2023-02-02T01:23:09;99953.39;;;3.67;76.61
70521;BME280;58442;52.716;23.560;2023-02-02T01:25:18;99944.22;;;3.68;76.55
70521;BME280;58442;52.716;23.560;2023-02-02T01:27:20;99954.17;;;3.68;76.55
70521;BME280;58442;52.716;23.560;2023-02-02T01:29:21;99945.66;;;3.66;76.58
70521;BME280;58442;52.716;23.560;2023-02-02T01:31:23;99956.73;;;3.64;76.67
70521;BME280;58442;52.716;23.560;2023-02-02T01:33:24;99952.76;;;3.62;76.74
70521;BME280;58442;52.716;23.560;2023-02-02T01:35:29;99960.37;;;3.60;76.85
70521;BME280;58442;52.716;23.560;2023-02-02T01:37:33;99953.41;;;3.59;76.92
70521;BME280;58442;52.716;23.560;2023-02-02T01:39:35;99957.21;;;3.58;77.13
70521;BME280;58442;52.716;23.560;2023-02-02T01:41:38;99955.31;;;3.58;76.99
70521;BME280;58442;52.716;23.560;2023-02-02T01:43:53;99958.46;;;3.60;77.01
70521;BME280;58442;52.716;23.560;2023-02-02T01:46:10;99963.19;;;3.63;76.92
70521;BME280;58442;52.716;23.560;2023-02-02T01:48:15;99954.51;;;3.66;76.85
70521;BME280;58442;52.716;23.560;2023-02-02T01:50:19;99951.80;;;3.66;76.82
70521;BME280;58442;52.716;23.560;2023-02-02T01:52:25;99958.77;;;3.67;76.79
70521;BME280;58442;52.716;23.560;2023-02-02T01:54:52;99948.34;;;3.66;76.82
70521;BME280;58442;52.716;23.560;2023-02-02T01:56:47;99948.80;;;3.68;76.80
70521;BME280;58442;52.716;23.560;2023-02-02T01:58:52;99949.26;;;3.70;76.77
70521;BME280;58442;52.716;23.560;2023-02-02T02:00:54;99948.48;;;3.69;76.78
70521;BME280;58442;52.716;23.560;2023-02-02T02:03:15;99952.27;;;3.68;76.82
70521;BME280;58442;52.716;23.560;2023-02-02T02:05:20;99946.45;;;3.66;76.82
70521;BME280;58442;52.716;23.560;2023-02-02T02:07:23;99945.98;;;3.64;76.89
70521;BME280;58442;52.716;23.560;2023-02-02T02:09:28;99948.96;;;3.63;76.98
70521;BME280;58442;52.716;23.560;2023-02-02T02:11:30;99957.02;;;3.63;77.06
70521;BME280;58442;52.716;23.560;2023-02-02T02:13:37;99946.28;;;3.63;77.03
70521;BME280;58442;52.716;23.560;2023-02-02T02:16:02;99951.19;;;3.61;77.09
70521;BME280;58442;52.716;23.560;2023-02-02T02:20:45;99945.02;;;3.60;77.19
70521;BME280;58442;52.716;23.560;2023-02-02T02:39:16;99961.17;;;3.51;77.49
70521;BME280;58442;52.716;23.560;2023-02-02T02:41:36;99964.32;;;3.53;77.42
70521;BME280;58442;52.716;23.560;2023-02-02T02:44:03;99948.53;;;3.52;77.39
70521;BME280;58442;52.716;23.560;2023-02-02T02:46:19;99954.23;;;3.50;77.41
70521;BME280;58442;52.716;23.560;2023-02-02T02:48:21;99957.21;;;3.49;77.40
70521;BME280;58442;52.716;23.560;2023-02-02T02:50:22;99953.73;;;3.48;77.34
70521;BME280;58442;52.716;23.560;2023-02-02T02:52:23;99954.39;;;3.45;77.32
70521;BME280;58442;52.716;23.560;2023-02-02T02:54:38;99952.03;;;3.44;77.35
70521;BME280;58442;52.716;23.560;2023-02-02T02:57:00;99953.11;;;3.43;77.32
70521;BME280;58442;52.716;23.560;2023-02-02T02:59:26;99947.60;;;3.39;77.38
70521;BME280;58442;52.716;23.560;2023-02-02T03:01:41;99952.51;;;3.37;77.43
70521;BME280;58442;52.716;23.560;2023-02-02T03:04:04;99960.56;;;3.37;77.53
70521;BME280;58442;52.716;23.560;2023-02-02T03:06:27;99960.86;;;3.36;77.54
70521;BME280;58442;52.716;23.560;2023-02-02T03:08:45;99960.07;;;3.35;77.58
70521;BME280;58442;52.716;23.560;2023-02-02T03:10:59;99962.15;;;3.29;77.71
70521;BME280;58442;52.716;23.560;2023-02-02T03:13:06;99965.45;;;3.26;77.81
70521;BME280;58442;52.716;23.560;2023-02-02T03:15:09;99959.13;;;3.22;77.94
70521;BME280;58442;52.716;23.560;2023-02-02T03:17:10;99958.66;;;3.20;78.01
70521;BME280;58442;52.716;23.560;2023-02-02T03:19:13;99951.73;;;3.19;78.10
70521;BME280;58442;52.716;23.560;2023-02-02T03:21:14;99962.46;;;3.19;78.10
70521;BME280;58442;52.716;23.560;2023-02-02T03:23:16;99965.14;;;3.19;78.12
70521;BME280;58442;52.716;23.560;2023-02-02T03:25:26;99965.46;;;3.18;78.12
70521;BME280;58442;52.716;23.560;2023-02-02T03:27:31;99972.42;;;3.19;78.13
70521;BME280;58442;52.716;23.560;2023-02-02T03:29:36;99963.11;;;3.16;78.16
70521;BME280;58442;52.716;23.560;2023-02-02T03:31:38;99967.69;;;3.16;78.17
70521;BME280;58442;52.716;23.560;2023-02-02T03:33:39;99971.16;;;3.16;78.15
70521;BME280;58442;52.716;23.560;2023-02-02T03:35:43;99977.31;;;3.17;78.15
70521;BME280;58442;52.716;23.560;2023-02-02T03:37:49;99966.88;;;3.15;78.15
70521;BME280;58442;52.716;23.560;2023-02-02T03:39:50;99977.15;;;3.13;78.17
70521;BME280;58442;52.716;23.560;2023-02-02T03:41:52;99979.37;;;3.11;78.22
70521;BME280;58442;52.716;23.560;2023-02-02T03:43:58;99975.10;;;3.10;78.27
70521;BME280;58442;52.716;23.560;2023-02-02T03:46:04;99978.89;;;3.09;78.32
70521;BME280;58442;52.716;23.560;2023-02-02T03:48:06;99976.51;;;3.08;78.36
70521;BME280;58442;52.716;23.560;2023-02-02T03:50:10;99978.41;;;3.07;78.35
70521;BME280;58442;52.716;23.560;2023-02-02T03:52:13;99981.09;;;3.07;78.36
70521;BME280;58442;52.716;23.560;2023-02-02T03:54:14;99979.52;;;3.06;78.43
70521;BME280;58442;52.716;23.560;2023-02-02T03:56:16;99975.27;;;3.05;78.47
70521;BME280;58442;52.716;23.560;2023-02-02T03:58:19;99977.30;;;3.08;78.41
70521;BME280;58442;52.716;23.560;2023-02-02T04:00:28;99977.62;;;3.07;78.40
70521;BME280;58442;52.716;23.560;2023-02-02T04:02:32;99978.73;;;3.06;78.49
70521;BME280;58442;52.716;23.560;2023-02-02T04:04:33;99975.72;;;3.07;78.52
70521;BME280;58442;52.716;23.560;2023-02-02T04:06:35;99974.15;;;3.06;78.50
70521;BME280;58442;52.716;23.560;2023-02-02T04:08:43;99976.83;;;3.06;78.61
70521;BME280;58442;52.716;23.560;2023-02-02T04:10:44;99982.20;;;3.06;78.58
70521;BME280;58442;52.716;23.560;2023-02-02T04:12:46;99976.51;;;3.08;78.56
70521;BME280;58442;52.716;23.560;2023-02-02T04:14:47;99977.30;;;3.08;78.50
70521;BME280;58442;52.716;23.560;2023-02-02T04:16:59;99973.53;;;3.09;78.50
70521;BME280;58442;52.716;23.560;2023-02-02T04:19:00;99973.53;;;3.09;78.45
70521;BME280;58442;52.716;23.560;2023-02-02T04:21:02;99973.03;;;3.07;78.49
70521;BME280;58442;52.716;23.560;2023-02-02T04:23:04;99974.15;;;3.06;78.56
70521;BME280;58442;52.716;23.560;2023-02-02T04:25:13;99977.62;;;3.07;78.60
70521;BME280;58442;52.716;23.560;2023-02-02T04:27:14;99985.34;;;3.08;78.59
70521;BME280;58442;52.716;23.560;2023-02-02T04:29:16;99983.45;;;3.09;78.64
70521;BME280;58442;52.716;23.560;2023-02-02T04:31:17;99983.63;;;3.12;78.54
70521;BME280;58442;52.716;23.560;2023-02-02T04:33:36;99984.88;;;3.15;78.48
70521;BME280;58442;52.716;23.560;2023-02-02T04:35:38;99980.29;;;3.15;78.40
70521;BME280;58442;52.716;23.560;2023-02-02T04:37:39;99982.19;;;3.15;78.38
70521;BME280;58442;52.716;23.560;2023-02-02T04:39:40;99985.98;;;3.14;78.38
70521;BME280;58442;52.716;23.560;2023-02-02T04:41:44;99976.04;;;3.14;78.38
70521;BME280;58442;52.716;23.560;2023-02-02T04:43:46;99976.04;;;3.14;78.36
70521;BME280;58442;52.716;23.560;2023-02-02T04:45:55;99981.41;;;3.14;78.30
70521;BME280;58442;52.716;23.560;2023-02-02T04:48:04;99984.41;;;3.13;78.30
70521;BME280;58442;52.716;23.560;2023-02-02T04:50:06;99982.52;;;3.13;78.39
70521;BME280;58442;52.716;23.560;2023-02-02T04:52:15;99992.14;;;3.14;78.33
70521;BME280;58442;52.716;23.560;2023-02-02T04:54:16;99994.36;;;3.12;78.31
70521;BME280;58442;52.716;23.560;2023-02-02T04:56:18;99990.11;;;3.11;78.40
70521;BME280;58442;52.716;23.560;2023-02-02T04:58:21;99992.33;;;3.09;78.46
70521;BME280;58442;52.716;23.560;2023-02-02T05:00:28;99996.58;;;3.10;78.50
70521;BME280;58442;52.716;23.560;2023-02-02T05:02:29;99994.19;;;3.09;78.51
70521;BME280;58442;52.716;23.560;2023-02-02T05:04:47;100000.99;;;3.06;78.57
70521;BME280;58442;52.716;23.560;2023-02-02T05:06:48;99998.95;;;3.03;78.72
70521;BME280;58442;52.716;23.560;2023-02-02T05:08:58;99998.45;;;3.01;78.79
70521;BME280;58442;52.716;23.560;2023-02-02T05:11:05;99999.55;;;3.00;78.81
70521;BME280;58442;52.716;23.560;2023-02-02T05:13:08;100005.43;;;3.02;78.84
70521;BME280;58442;52.716;23.560;2023-02-02T05:15:10;100000.05;;;3.02;78.82
70521;BME280;58442;52.716;23.560;2023-02-02T05:17:13;99996.73;;;3.05;78.79
70521;BME280;58442;52.716;23.560;2023-02-02T05:19:20;100000.66;;;3.08;78.70
70521;BME280;58442;52.716;23.560;2023-02-02T05:21:22;100001.46;;;3.08;78.60
70521;BME280;58442;52.716;23.560;2023-02-02T05:23:23;100002.56;;;3.07;78.51
70521;BME280;58442;52.716;23.560;2023-02-02T05:25:29;100007.79;;;3.04;78.57
70521;BME280;58442;52.716;23.560;2023-02-02T05:27:30;100004.31;;;3.03;78.67
70521;BME280;58442;52.716;23.560;2023-02-02T05:29:34;100005.89;;;3.04;78.66
70521;BME280;58442;52.716;23.560;2023-02-02T05:31:35;100016.31;;;3.06;78.60
70521;BME280;58442;52.716;23.560;2023-02-02T05:33:43;100009.83;;;3.07;78.53
70521;BME280;58442;52.716;23.560;2023-02-02T05:35:48;100006.36;;;3.06;78.52
70521;BME280;58442;52.716;23.560;2023-02-02T05:37:54;100019.78;;;3.06;78.54
70521;BME280;58442;52.716;23.560;2023-02-02T05:39:55;100015.67;;;3.09;78.55
70521;BME280;58442;52.716;23.560;2023-02-02T05:41:58;100008.90;;;3.11;78.45
70521;BME280;58442;52.716;23.560;2023-02-02T05:44:00;100015.51;;;3.14;78.38
70521;BME280;58442;52.716;23.560;2023-02-02T05:46:01;100025.94;;;3.15;78.25
70521;BME280;58442;52.716;23.560;2023-02-02T05:48:11;100021.67;;;3.14;78.26
70521;BME280;58442;52.716;23.560;2023-02-02T05:50:15;100018.21;;;3.14;78.28
70521;BME280;58442;52.716;23.560;2023-02-02T05:52:18;100027.83;;;3.15;78.26
70521;BME280;58442;52.716;23.560;2023-02-02T05:54:29;100032.74;;;3.13;78.30
70521;BME280;58442;52.716;23.560;2023-02-02T05:56:31;100031.95;;;3.12;78.33
70521;BME280;58442;52.716;23.560;2023-02-02T05:58:40;100021.21;;;3.12;78.36
70521;BME280;58442;52.716;23.560;2023-02-02T06:00:41;100033.05;;;3.11;78.37
70521;BME280;58442;52.716;23.560;2023-02-02T06:02:45;100034.16;;;3.10;78.34
70521;BME280;58442;52.716;23.560;2023-02-02T06:04:50;100036.06;;;3.10;78.36
70521;BME280;58442;52.716;23.560;2023-02-02T06:06:58;100038.57;;;3.06;78.46
70521;BME280;58442;52.716;23.560;2023-02-02T06:09:05;100036.99;;;3.05;78.56
70521;BME280;58442;52.716;23.560;2023-02-02T06:11:14;100036.21;;;3.05;78.56
70521;BME280;58442;52.716;23.560;2023-02-02T06:13:20;100043.48;;;3.04;78.64
70521;BME280;58442;52.716;23.560;2023-02-02T06:15:27;100043.48;;;3.04;78.69
70521;BME280;58442;52.716;23.560;2023-02-02T06:17:33;100046.95;;;3.05;78.69
70521;BME280;58442;52.716;23.560;2023-02-02T06:19:39;100041.58;;;3.05;78.74
70521;BME280;58442;52.716;23.560;2023-02-02T06:21:41;100034.77;;;3.07;78.74
70521;BME280;58442;52.716;23.560;2023-02-02T06:23:42;100036.85;;;3.10;78.72
70521;BME280;58442;52.716;23.560;2023-02-02T06:25:47;100037.31;;;3.12;78.61
70521;BME280;58442;52.716;23.560;2023-02-02T06:27:58;100045.84;;;3.14;78.62
70521;BME280;58442;52.716;23.560;2023-02-02T06:30:00;100041.26;;;3.15;78.62
70521;BME280;58442;52.716;23.560;2023-02-02T06:32:01;100042.05;;;3.15;78.57
70521;BME280;58442;52.716;23.560;2023-02-02T06:34:04;100033.20;;;3.15;78.64
70521;BME280;58442;52.716;23.560;2023-02-02T06:36:06;100048.70;;;3.18;78.69
70521;BME280;58442;52.716;23.560;2023-02-02T06:38:10;100048.06;;;3.21;78.69
70521;BME280;58442;52.716;23.560;2023-02-02T06:40:12;100035.59;;;3.25;78.62
70521;BME280;58442;52.716;23.560;2023-02-02T06:42:19;100039.22;;;3.29;78.58
70521;BME280;58442;52.716;23.560;2023-02-02T06:44:25;100036.23;;;3.31;78.57
70521;BME280;58442;52.716;23.560;2023-02-02T06:46:27;100039.86;;;3.35;78.48
70521;BME280;58442;52.716;23.560;2023-02-02T06:48:31;100042.71;;;3.38;78.41
70521;BME280;58442;52.716;23.560;2023-02-02T06:50:34;100032.76;;;3.39;78.38
70521;BME280;58442;52.716;23.560;2023-02-02T06:52:39;100040.34;;;3.37;78.37
70521;BME280;58442;52.716;23.560;2023-02-02T06:54:40;100043.03;;;3.37;78.43
70521;BME280;58442;52.716;23.560;2023-02-02T06:56:42;100047.91;;;3.35;78.47
70521;BME280;58442;52.716;23.560;2023-02-02T06:58:49;100039.86;;;3.35;78.56
70521;BME280;58442;52.716;23.560;2023-02-02T07:01:00;100049.19;;;3.37;78.56
70521;BME280;58442;52.716;23.560;2023-02-02T07:03:11;100045.54;;;3.42;78.46
70521;BME280;58442;52.716;23.560;2023-02-02T07:05:15;100040.66;;;3.44;78.22
70521;BME280;58442;52.716;23.560;2023-02-02T07:07:32;100046.83;;;3.44;78.44
70521;BME280;58442;52.716;23.560;2023-02-02T07:09:35;100049.97;;;3.46;78.48
70521;BME280;58442;52.716;23.560;2023-02-02T07:11:36;100046.17;;;3.47;78.54
70521;BME280;58442;52.716;23.560;2023-02-02T07:13:40;100050.77;;;3.47;78.64
70521;BME280;58442;52.716;23.560;2023-02-02T07:15:42;100048.87;;;3.47;78.67
70521;BME280;58442;52.716;23.560;2023-02-02T07:17:50;100047.43;;;3.50;78.64
70521;BME280;58442;52.716;23.560;2023-02-02T07:19:51;100054.41;;;3.51;78.57
70521;BME280;58442;52.716;23.560;2023-02-02T07:21:52;100055.20;;;3.51;78.57
70521;BME280;58442;52.716;23.560;2023-02-02T07:23:54;100061.82;;;3.54;78.51
70521;BME280;58442;52.716;23.560;2023-02-02T07:26:07;100068.31;;;3.53;78.48
70521;BME280;58442;52.716;23.560;2023-02-02T07:28:11;100063.72;;;3.53;78.43
70521;BME280;58442;52.716;23.560;2023-02-02T07:30:12;100057.55;;;3.53;78.36
70521;BME280;58442;52.716;23.560;2023-02-02T07:32:16;100060.40;;;3.48;78.38
70521;BME280;58442;52.716;23.560;2023-02-02T07:34:20;100058.03;;;3.46;78.50
70521;BME280;58442;52.716;23.560;2023-02-02T07:36:23;100061.51;;;3.47;78.52
70521;BME280;58442;52.716;23.560;2023-02-02T07:38:24;100056.92;;;3.47;78.45
70521;BME280;58442;52.716;23.560;2023-02-02T07:40:26;100063.87;;;3.48;78.49
70521;BME280;58442;52.716;23.560;2023-02-02T07:42:35;100070.52;;;3.51;78.44
70521;BME280;58442;52.716;23.560;2023-02-02T07:44:37;100069.42;;;3.52;78.34
70521;BME280;58442;52.716;23.560;2023-02-02T07:46:39;100074.79;;;3.52;78.34
70521;BME280;58442;52.716;23.560;2023-02-02T07:48:43;100075.58;;;3.52;78.33
70521;BME280;58442;52.716;23.560;2023-02-02T07:50:51;100084.11;;;3.54;78.30
70521;BME280;58442;52.716;23.560;2023-02-02T07:52:53;100080.01;;;3.57;78.30
70521;BME280;58442;52.716;23.560;2023-02-02T07:54:54;100080.80;;;3.58;78.20
70521;BME280;58442;52.716;23.560;2023-02-02T07:56:56;100073.03;;;3.56;78.29
70521;BME280;58442;52.716;23.560;2023-02-02T07:59:05;100081.88;;;3.56;78.31
70521;BME280;58442;52.716;23.560;2023-02-02T08:01:08;100087.58;;;3.55;78.32
70521;BME280;58442;52.716;23.560;2023-02-02T08:03:12;100082.99;;;3.55;78.41
70521;BME280;58442;52.716;23.560;2023-02-02T08:05:16;100082.52;;;3.53;78.43
70521;BME280;58442;52.716;23.560;2023-02-02T08:07:20;100079.84;;;3.53;78.47
70521;BME280;58442;52.716;23.560;2023-02-02T08:09:24;100082.20;;;3.55;78.49
70521;BME280;58442;52.716;23.560;2023-02-02T08:11:26;100081.09;;;3.56;78.50
70521;BME280;58442;52.716;23.560;2023-02-02T08:13:28;100078.11;;;3.58;78.45
70521;BME280;58442;52.716;23.560;2023-02-02T08:15:37;100082.70;;;3.57;78.51
70521;BME280;58442;52.716;23.560;2023-02-02T08:17:39;100083.16;;;3.59;78.58
70521;BME280;58442;52.716;23.560;2023-02-02T08:19:47;100081.73;;;3.62;78.10
70521;BME280;58442;52.716;23.560;2023-02-02T08:21:49;100087.88;;;3.62;78.33
70521;BME280;58442;52.716;23.560;2023-02-02T08:23:51;100088.68;;;3.63;78.29
70521;BME280;58442;52.716;23.560;2023-02-02T08:25:53;100093.13;;;3.59;78.35
70521;BME280;58442;52.716;23.560;2023-02-02T08:27:58;100090.27;;;3.55;78.46
70521;BME280;58442;52.716;23.560;2023-02-02T08:30:03;100099.12;;;3.55;78.53
70521;BME280;58442;52.716;23.560;2023-02-02T08:32:05;100096.42;;;3.55;78.57
70521;BME280;58442;52.716;23.560;2023-02-02T08:34:07;100102.77;;;3.60;78.54
70521;BME280;58442;52.716;23.560;2023-02-02T08:36:21;100104.02;;;3.62;78.43
70521;BME280;58442;52.716;23.560;2023-02-02T08:38:19;100093.77;;;3.64;78.37
70521;BME280;58442;52.716;23.560;2023-02-02T08:40:20;100099.60;;;3.66;78.33
70521;BME280;58442;52.716;23.560;2023-02-02T08:42:26;100098.95;;;3.69;78.36
70521;BME280;58442;52.716;23.560;2023-02-02T08:44:30;100104.50;;;3.73;78.29
70521;BME280;58442;52.716;23.560;2023-02-02T08:46:32;100103.06;;;3.75;78.18
70521;BME280;58442;52.716;23.560;2023-02-02T08:48:38;100107.04;;;3.78;78.11
70521;BME280;58442;52.716;23.560;2023-02-02T08:50:42;100111.59;;;3.77;78.04
70521;BME280;58442;52.716;23.560;2023-02-02T08:52:44;100111.59;;;3.77;78.16
70521;BME280;58442;52.716;23.560;2023-02-02T08:54:45;100113.20;;;3.78;78.17
70521;BME280;58442;52.716;23.560;2023-02-02T08:56:49;100109.40;;;3.79;78.10
70521;BME280;58442;52.716;23.560;2023-02-02T08:58:53;100110.02;;;3.76;77.91
70521;BME280;58442;52.716;23.560;2023-02-02T09:01:07;100110.02;;;3.76;78.32
70521;BME280;58442;52.716;23.560;2023-02-02T09:03:16;100108.12;;;3.77;78.24
70521;BME280;58442;52.716;23.560;2023-02-02T09:05:20;100117.61;;;3.74;78.25
70521;BME280;58442;52.716;23.560;2023-02-02T09:07:26;100115.25;;;3.73;78.38
70521;BME280;58442;52.716;23.560;2023-02-02T09:09:27;100123.31;;;3.73;78.37
70521;BME280;58442;52.716;23.560;2023-02-02T09:11:29;100128.51;;;3.69;78.41
70521;BME280;58442;52.716;23.560;2023-02-02T09:13:30;100125.04;;;3.69;78.49
70521;BME280;58442;52.716;23.560;2023-02-02T09:15:41;100120.45;;;3.69;78.55
70521;BME280;58442;52.716;23.560;2023-02-02T09:17:42;100125.82;;;3.69;78.58
70521;BME280;58442;52.716;23.560;2023-02-02T09:19:44;100129.80;;;3.72;78.70
70521;BME280;58442;52.716;23.560;2023-02-02T09:21:51;100125.35;;;3.76;78.67
70521;BME280;58442;52.716;23.560;2023-02-02T09:23:56;100123.30;;;3.81;78.67
70521;BME280;58442;52.716;23.560;2023-02-02T09:26:21;100127.74;;;3.86;78.72
70521;BME280;58442;52.716;23.560;2023-02-02T09:28:21;100131.06;;;3.92;78.72
70521;BME280;58442;52.716;23.560;2023-02-02T09:30:22;100130.88;;;3.97;78.73
70521;BME280;58442;52.716;23.560;2023-02-02T09:32:26;100138.80;;;4.02;78.76
70521;BME280;58442;52.716;23.560;2023-02-02T09:34:27;100126.77;;;4.08;78.79
70521;BME280;58442;52.716;23.560;2023-02-02T09:36:29;100130.88;;;4.14;78.67
70521;BME280;58442;52.716;23.560;2023-02-02T09:38:32;100131.80;;;4.18;78.64
70521;BME280;58442;52.716;23.560;2023-02-02T09:40:43;100127.84;;;4.24;78.63
70521;BME280;58442;52.716;23.560;2023-02-02T09:45:09;100138.73;;;4.36;78.64
70521;BME280;58442;52.716;23.560;2023-02-02T09:47:23;100139.69;;;4.41;78.64
70521;BME280;58442;52.716;23.560;2023-02-02T09:49:35;100137.13;;;4.44;78.64
70521;BME280;58442;52.716;23.560;2023-02-02T09:51:46;100137.62;;;4.46;78.61
70521;BME280;58442;52.716;23.560;2023-02-02T09:56:21;100139.33;;;4.51;78.46
70521;BME280;58442;52.716;23.560;2023-02-02T09:58:47;100136.31;;;4.52;78.45
70521;BME280;58442;52.716;23.560;2023-02-02T10:00:55;100132.20;;;4.55;78.41
70521;BME280;58442;52.716;23.560;2023-02-02T10:05:21;100138.38;;;4.55;78.37
70521;BME280;58442;52.716;23.560;2023-02-02T10:07:30;100136.48;;;4.56;78.34
70521;BME280;58442;52.716;23.560;2023-02-02T10:09:43;100135.81;;;4.59;78.33
70521;BME280;58442;52.716;23.560;2023-02-02T10:12:00;100136.60;;;4.59;78.30
70521;BME280;58442;52.716;23.560;2023-02-02T10:14:28;100132.51;;;4.62;78.33
70521;BME280;58442;52.716;23.560;2023-02-02T10:16:21;100132.33;;;4.67;78.33
70521;BME280;58442;52.716;23.560;2023-02-02T10:18:36;100128.66;;;4.72;78.35
70521;BME280;58442;52.716;23.560;2023-02-02T10:20:45;100132.62;;;4.74;78.35
70521;BME280;58442;52.716;23.560;2023-02-02T10:22:52;100129.27;;;4.77;78.35
70521;BME280;58442;52.716;23.560;2023-02-02T10:25:01;100124.84;;;4.81;78.27
70521;BME280;58442;52.716;23.560;2023-02-02T10:27:10;100130.51;;;4.88;78.16
70521;BME280;58442;52.716;23.560;2023-02-02T10:36:40;100121.81;;;5.12;78.13
70521;BME280;58442;52.716;23.560;2023-02-02T10:39:03;100129.71;;;5.17;78.14
70521;BME280;58442;52.716;23.560;2023-02-02T10:45:56;100141.56;;;5.25;77.87
70521;BME280;58442;52.716;23.560;2023-02-02T10:47:59;100143.58;;;5.28;77.88
70521;BME280;58442;52.716;23.560;2023-02-02T10:52:17;100151.48;;;5.33;77.77
70521;BME280;58442;52.716;23.560;2023-02-02T10:56:47;100145.58;;;5.40;77.61
70521;BME280;58442;52.716;23.560;2023-02-02T11:01:15;100150.78;;;5.45;77.46
70521;BME280;58442;52.716;23.560;2023-02-02T11:03:26;100139.22;;;5.44;77.40
70521;BME280;58442;52.716;23.560;2023-02-02T11:05:28;100146.19;;;5.45;77.23
70521;BME280;58442;52.716;23.560;2023-02-02T11:07:42;100148.09;;;5.45;77.19
70521;BME280;58442;52.716;23.560;2023-02-02T11:09:44;100140.01;;;5.45;77.19
70521;BME280;58442;52.716;23.560;2023-02-02T11:11:59;100146.19;;;5.45;77.13
70521;BME280;58442;52.716;23.560;2023-02-02T11:14:12;100151.58;;;5.45;77.08
70521;BME280;58442;52.716;23.560;2023-02-02T11:16:18;100146.19;;;5.45;77.03
70521;BME280;58442;52.716;23.560;2023-02-02T11:18:29;100147.30;;;5.44;76.96
70521;BME280;58442;52.716;23.560;2023-02-02T11:20:34;100145.24;;;5.41;76.92
70521;BME280;58442;52.716;23.560;2023-02-02T11:22:46;100149.06;;;5.40;77.00
70521;BME280;58442;52.716;23.560;2023-02-02T11:24:48;100158.27;;;5.39;77.04
70521;BME280;58442;52.716;23.560;2023-02-02T11:26:54;100161.29;;;5.38;76.98
70521;BME280;58442;52.716;23.560;2023-02-02T11:28:57;100157.48;;;5.39;76.89
70521;BME280;58442;52.716;23.560;2023-02-02T11:30:58;100158.72;;;5.41;76.78
70521;BME280;58442;52.716;23.560;2023-02-02T11:35:21;100159.05;;;5.40;76.64
70521;BME280;58442;52.716;23.560;2023-02-02T11:37:26;100164.33;;;5.36;76.66
70521;BME280;58442;52.716;23.560;2023-02-02T11:39:28;100164.62;;;5.35;76.72
70521;BME280;58442;52.716;23.560;2023-02-02T11:41:37;100163.53;;;5.36;76.76
70521;BME280;58442;52.716;23.560;2023-02-02T11:46:02;100162.08;;;5.38;76.57
70521;BME280;58442;52.716;23.560;2023-02-02T11:50:25;100174.43;;;5.39;76.63
70521;BME280;58442;52.716;23.560;2023-02-02T11:52:29;100171.41;;;5.41;76.59